createdAt,value
2022-10-10T00:01:19.504Z,7.83
2022-10-10T00:03:46.660Z,7.78
2022-10-10T00:06:14.203Z,7.80
2022-10-10T00:08:41.590Z,7.68
2022-10-10T00:11:08.960Z,7.54
2022-10-10T00:13:35.750Z,7.51
2022-10-10T00:16:02.925Z,7.51
2022-10-10T00:18:30.119Z,7.52
2022-10-10T00:20:56.715Z,7.58
2022-10-10T00:23:23.791Z,7.63
2022-10-10T00:25:51.090Z,7.68
2022-10-10T00:28:18.404Z,7.64
2022-10-10T00:30:44.918Z,7.56
2022-10-10T00:33:11.876Z,7.50
2022-10-10T00:35:38.663Z,7.37
2022-10-10T00:38:05.145Z,7.28
2022-10-10T00:40:31.945Z,7.25
2022-10-10T00:42:58.756Z,7.24
2022-10-10T00:45:43.052Z,7.28
2022-10-10T00:48:14.208Z,7.27
2022-10-10T00:50:52.248Z,7.16
2022-10-10T00:53:23.425Z,7.02
2022-10-10T00:55:50.549Z,7.03
2022-10-10T00:58:17.535Z,7.03
2022-10-10T01:00:44.094Z,7.01
2022-10-10T01:03:10.552Z,6.98
2022-10-10T01:05:37.736Z,6.96
2022-10-10T01:08:07.123Z,6.96
2022-10-10T01:10:44.735Z,6.99
2022-10-10T01:13:42.856Z,6.91
2022-10-10T01:16:35.569Z,6.90
2022-10-10T01:19:20.279Z,6.80
2022-10-10T01:21:55.808Z,6.81
2022-10-10T01:24:25.151Z,6.79
2022-10-10T01:27:08.785Z,6.75
2022-10-10T01:29:39.008Z,6.73
2022-10-10T01:32:14.619Z,6.77
2022-10-10T01:35:03.525Z,6.79
2022-10-10T01:37:50.915Z,6.77
2022-10-10T01:40:43.273Z,6.78
2022-10-10T01:43:11.438Z,6.71
2022-10-10T01:45:43.127Z,6.68
2022-10-10T01:48:09.683Z,6.63
2022-10-10T01:50:56.760Z,6.62
2022-10-10T01:53:47.562Z,6.63
2022-10-10T01:56:25.882Z,6.51
2022-10-10T01:59:10.773Z,6.50
2022-10-10T02:01:54.727Z,6.49
2022-10-10T02:04:27.146Z,6.53
2022-10-10T02:07:00.206Z,6.50
2022-10-10T02:09:40.659Z,6.56
2022-10-10T02:12:10.928Z,6.54
2022-10-10T02:14:46.010Z,6.55
2022-10-10T02:17:14.995Z,6.53
2022-10-10T02:19:47.680Z,6.57
2022-10-10T02:22:15.266Z,6.50
2022-10-10T02:24:42.528Z,6.53
2022-10-10T02:27:17.092Z,6.50
2022-10-10T02:29:45.420Z,6.60
2022-10-10T02:32:38.131Z,6.51
2022-10-10T02:35:11.896Z,6.51
2022-10-10T02:37:41.597Z,6.43
2022-10-10T02:40:10.523Z,6.48
2022-10-10T02:42:38.816Z,6.55
2022-10-10T02:45:06.052Z,6.53
2022-10-10T02:47:32.647Z,6.54
2022-10-10T02:49:59.184Z,6.62
2022-10-10T02:52:25.693Z,6.58
2022-10-10T02:54:52.129Z,6.59
2022-10-10T02:57:18.511Z,6.60
2022-10-10T02:59:44.923Z,6.64
2022-10-10T03:02:11.350Z,6.67
2022-10-10T03:04:37.876Z,6.72
2022-10-10T03:07:04.643Z,6.76
2022-10-10T03:09:31.144Z,6.81
2022-10-10T03:11:57.635Z,6.83
2022-10-10T03:14:24.204Z,6.88
2022-10-10T03:16:50.670Z,6.94
2022-10-10T03:19:17.160Z,6.98
2022-10-10T03:21:43.589Z,7.03
2022-10-10T03:24:10.216Z,7.08
2022-10-10T03:26:36.625Z,7.12
2022-10-10T03:29:03.697Z,7.17
2022-10-10T03:31:30.683Z,7.22
2022-10-10T03:33:57.085Z,7.27
2022-10-10T03:36:23.697Z,7.30
2022-10-10T03:38:50.297Z,7.33
2022-10-10T03:41:16.702Z,7.36
2022-10-10T03:43:43.151Z,7.37
2022-10-10T03:46:15.100Z,7.37
2022-10-10T03:48:42.630Z,7.40
2022-10-10T03:51:09.052Z,7.40
2022-10-10T03:53:35.528Z,7.42
2022-10-10T03:56:01.928Z,7.43
2022-10-10T03:58:28.507Z,7.44
2022-10-10T04:01:02.780Z,7.48
2022-10-10T04:03:29.547Z,7.49
2022-10-10T04:05:56.210Z,7.48
2022-10-10T04:08:23.022Z,7.50
2022-10-10T04:10:50.873Z,7.50
2022-10-10T04:13:17.615Z,7.52
2022-10-10T04:15:44.529Z,7.54
2022-10-10T04:18:11.517Z,7.58
2022-10-10T04:20:38.123Z,7.60
2022-10-10T04:23:04.552Z,7.61
2022-10-10T04:25:31.188Z,7.59
2022-10-10T04:28:01.029Z,7.60
2022-10-10T04:30:33.445Z,7.61
2022-10-10T04:33:00.185Z,7.62
2022-10-10T04:35:26.830Z,7.63
2022-10-10T04:37:53.540Z,7.67
2022-10-10T04:40:25.558Z,7.68
2022-10-10T04:42:54.161Z,7.68
2022-10-10T04:45:20.704Z,7.73
2022-10-10T04:47:47.134Z,7.73
2022-10-10T04:50:13.699Z,7.71
2022-10-10T04:52:40.128Z,7.70
2022-10-10T04:55:06.735Z,7.67
2022-10-10T04:57:33.173Z,7.66
2022-10-10T04:59:59.706Z,7.67
2022-10-10T05:02:26.138Z,7.66
2022-10-10T05:04:52.575Z,7.67
2022-10-10T05:07:18.981Z,7.69
2022-10-10T05:09:45.401Z,7.70
2022-10-10T05:12:11.864Z,7.69
2022-10-10T05:14:38.318Z,7.69
2022-10-10T05:17:04.738Z,7.70
2022-10-10T05:19:31.161Z,7.70
2022-10-10T05:21:57.564Z,7.68
2022-10-10T05:24:24.263Z,7.68
2022-10-10T05:26:50.701Z,7.71
2022-10-10T05:29:17.127Z,7.72
2022-10-10T05:31:43.539Z,7.74
2022-10-10T05:34:13.986Z,7.74
2022-10-10T05:36:41.904Z,7.75
2022-10-10T05:39:08.787Z,7.77
2022-10-10T05:41:35.983Z,7.79
2022-10-10T05:44:02.421Z,7.81
2022-10-10T05:46:28.830Z,7.80
2022-10-10T05:48:55.624Z,7.80
2022-10-10T05:51:22.235Z,7.82
2022-10-10T05:53:49.414Z,7.82
2022-10-10T05:56:17.097Z,7.82
2022-10-10T05:58:44.658Z,7.84
2022-10-10T06:01:11.238Z,7.84
2022-10-10T06:03:38.127Z,7.87
2022-10-10T06:06:05.074Z,7.87
2022-10-10T06:08:32.357Z,7.87
2022-10-10T06:11:04.657Z,7.86
2022-10-10T06:13:31.183Z,7.88
2022-10-10T06:15:58.070Z,7.89
2022-10-10T06:18:24.503Z,7.90
2022-10-10T06:20:50.929Z,7.91
2022-10-10T06:23:18.151Z,7.94
2022-10-10T06:25:44.647Z,7.94
2022-10-10T06:28:11.710Z,7.97
2022-10-10T06:30:43.258Z,8.01
2022-10-10T06:33:09.988Z,8.01
2022-10-10T06:35:43.408Z,8.02
2022-10-10T06:38:10.618Z,8.04
2022-10-10T06:40:37.245Z,8.08
2022-10-10T06:43:04.638Z,8.09
2022-10-10T06:45:39.438Z,8.12
2022-10-10T06:48:06.473Z,8.15
2022-10-10T06:50:32.921Z,8.16
2022-10-10T06:52:59.693Z,8.22
2022-10-10T06:55:26.285Z,8.29
2022-10-10T06:57:52.702Z,8.30
2022-10-10T07:00:19.814Z,8.39
2022-10-10T07:02:46.301Z,8.50
2022-10-10T07:05:16.347Z,8.53
2022-10-10T07:07:44.415Z,8.60
2022-10-10T07:10:13.754Z,8.64
2022-10-10T07:12:44.456Z,8.76
2022-10-10T07:15:11.806Z,8.79
2022-10-10T07:17:38.246Z,8.81
2022-10-10T07:20:05.227Z,8.90
2022-10-10T07:22:31.773Z,8.99
2022-10-10T07:24:58.252Z,9.02
2022-10-10T07:27:24.864Z,9.11
2022-10-10T07:29:51.273Z,9.29
2022-10-10T07:32:17.647Z,9.29
2022-10-10T07:34:44.042Z,9.36
2022-10-10T07:37:10.475Z,9.42
2022-10-10T07:39:36.878Z,9.58
2022-10-10T07:42:03.611Z,9.73
2022-10-10T07:44:34.297Z,9.85
2022-10-10T07:47:01.091Z,9.93
2022-10-10T07:49:27.680Z,9.93
2022-10-10T07:51:58.715Z,9.88
2022-10-10T07:54:27.120Z,9.85
2022-10-10T07:56:53.513Z,9.86
2022-10-10T07:59:19.967Z,9.84
2022-10-10T08:01:47.447Z,9.84
2022-10-10T08:04:13.968Z,9.91
2022-10-10T08:06:40.420Z,9.89
2022-10-10T08:09:06.856Z,10.12
2022-10-10T08:11:33.275Z,10.09
2022-10-10T08:13:59.730Z,10.16
2022-10-10T08:16:26.206Z,10.29
2022-10-10T08:18:52.702Z,10.26
2022-10-10T08:21:19.258Z,10.37
2022-10-10T08:23:45.818Z,10.35
2022-10-10T08:26:15.317Z,10.35
2022-10-10T08:28:42.032Z,10.32
2022-10-10T08:31:13.813Z,10.32
2022-10-10T08:33:42.037Z,10.20
2022-10-10T08:36:17.735Z,10.23
2022-10-10T08:38:44.791Z,10.18
2022-10-10T08:41:24.360Z,10.29
2022-10-10T08:44:05.698Z,10.31
2022-10-10T08:46:39.519Z,10.39
2022-10-10T08:49:25.377Z,10.36
2022-10-10T08:52:00.109Z,10.41
2022-10-10T08:54:28.460Z,10.48
2022-10-10T08:56:59.571Z,10.58
2022-10-10T08:59:32.001Z,10.69
2022-10-10T09:02:21.570Z,10.67
2022-10-10T09:04:50.050Z,10.69
2022-10-10T09:07:38.451Z,10.65
2022-10-10T09:10:29.438Z,10.85
2022-10-10T09:13:12.805Z,10.98
2022-10-10T09:15:55.143Z,11.28
2022-10-10T09:18:42.881Z,11.26
2022-10-10T09:21:18.655Z,11.35
2022-10-10T09:24:11.671Z,11.33
2022-10-10T09:26:50.744Z,11.35
2022-10-10T09:29:51.823Z,11.45
2022-10-10T09:32:19.988Z,11.49
2022-10-10T09:34:52.003Z,11.53
2022-10-10T09:37:42.590Z,11.54
2022-10-10T09:40:33.644Z,11.58
2022-10-10T09:43:13.763Z,11.64
2022-10-10T09:45:48.911Z,11.71
2022-10-10T09:48:15.312Z,11.73
2022-10-10T09:50:43.840Z,12.08
2022-10-10T09:53:16.207Z,12.27
2022-10-10T09:55:44.859Z,12.35
2022-10-10T09:58:16.843Z,12.53
2022-10-10T10:00:43.325Z,12.50
2022-10-10T10:03:18.836Z,12.39
2022-10-10T10:06:00.669Z,12.40
2022-10-10T10:08:30.213Z,12.35
2022-10-10T10:10:58.475Z,12.59
2022-10-10T10:13:31.684Z,12.57
2022-10-10T10:16:06.680Z,12.55
2022-10-10T10:18:44.515Z,12.57
2022-10-10T10:21:12.823Z,12.53
2022-10-10T10:23:57.759Z,12.67
2022-10-10T10:26:33.204Z,12.59
2022-10-10T10:28:59.722Z,12.51
2022-10-10T10:31:52.947Z,12.73
2022-10-10T10:34:30.969Z,12.83
2022-10-10T10:37:15.400Z,12.73
2022-10-10T10:40:07.101Z,12.79
2022-10-10T10:43:00.829Z,12.97
2022-10-10T10:45:55.254Z,12.98
2022-10-10T10:48:34.848Z,13.15
2022-10-10T10:51:23.221Z,13.29
2022-10-10T10:53:59.471Z,13.36
2022-10-10T10:56:46.783Z,13.43
2022-10-10T10:59:41.792Z,13.49
2022-10-10T11:02:09.019Z,13.70
2022-10-10T11:05:18.282Z,13.93
2022-10-10T11:07:57.555Z,13.94
2022-10-10T11:10:56.879Z,13.85
2022-10-10T11:13:28.233Z,13.95
2022-10-10T11:16:10.021Z,13.97
2022-10-10T11:19:29.185Z,13.99
2022-10-10T11:22:09.849Z,14.11
2022-10-10T11:24:56.467Z,14.25
2022-10-10T11:27:36.310Z,14.47
2022-10-10T11:30:10.313Z,14.64
2022-10-10T11:32:55.514Z,14.64
2022-10-10T11:35:33.325Z,14.67
2022-10-10T11:38:23.012Z,14.59
2022-10-10T11:40:52.521Z,14.66
2022-10-10T11:43:34.031Z,14.59
2022-10-10T11:46:11.480Z,14.72
2022-10-10T11:49:04.061Z,14.65
2022-10-10T11:52:14.932Z,14.88
2022-10-10T11:54:51.208Z,14.84
2022-10-10T11:57:27.653Z,14.92
2022-10-10T12:00:01.988Z,14.89
2022-10-10T12:02:36.106Z,14.99
2022-10-10T12:05:06.081Z,15.04
2022-10-10T12:07:56.929Z,15.05
2022-10-10T12:10:25.212Z,14.96
2022-10-10T12:12:57.165Z,14.97
2022-10-10T12:15:30.397Z,15.03
2022-10-10T12:17:57.384Z,15.04
2022-10-10T12:20:26.761Z,15.06
2022-10-10T12:23:14.991Z,15.00
2022-10-10T12:25:45.650Z,15.14
2022-10-10T12:28:15.183Z,15.44
2022-10-10T12:30:58.445Z,15.50
2022-10-10T12:33:31.367Z,15.53
2022-10-10T12:36:18.015Z,15.60
2022-10-10T12:39:06.491Z,15.81
2022-10-10T12:41:56.954Z,15.59
2022-10-10T12:44:35.626Z,15.49
2022-10-10T12:47:46.201Z,15.47
2022-10-10T12:50:23.107Z,15.40
2022-10-10T12:52:51.312Z,15.35
2022-10-10T12:55:26.008Z,15.51
2022-10-10T12:57:58.827Z,15.95
2022-10-10T13:00:28.012Z,16.63
2022-10-10T13:02:57.447Z,17.16
2022-10-10T13:05:35.035Z,17.83
2022-10-10T13:08:08.283Z,18.15
2022-10-10T13:10:34.738Z,18.52
2022-10-10T13:13:05.957Z,18.40
2022-10-10T13:15:34.435Z,18.06
2022-10-10T13:18:01.114Z,17.65
2022-10-10T13:20:29.866Z,17.24
2022-10-10T13:22:56.833Z,16.98
2022-10-10T13:25:24.085Z,16.73
2022-10-10T13:27:50.832Z,16.61
2022-10-10T13:30:23.613Z,16.61
2022-10-10T13:32:52.880Z,16.60
2022-10-10T13:35:30.103Z,16.61
2022-10-10T13:37:59.506Z,16.62
2022-10-10T13:40:27.105Z,16.95
2022-10-10T13:42:55.106Z,17.14
2022-10-10T13:45:32.448Z,17.27
2022-10-10T13:48:01.898Z,17.28
2022-10-10T13:50:34.529Z,17.35
2022-10-10T13:53:29.137Z,17.43
2022-10-10T13:56:10.784Z,17.46
2022-10-10T13:58:51.087Z,17.35
2022-10-10T14:01:23.275Z,17.26
2022-10-10T14:03:51.816Z,17.40
2022-10-10T14:06:26.317Z,17.22
2022-10-10T14:08:56.398Z,17.28
2022-10-10T14:11:26.920Z,17.25
2022-10-10T14:14:02.609Z,17.15
2022-10-10T14:16:29.081Z,17.14
2022-10-10T14:18:55.519Z,17.08
2022-10-10T14:21:21.931Z,17.05
2022-10-10T14:23:48.368Z,17.06
2022-10-10T14:26:18.615Z,17.05
2022-10-10T14:28:45.769Z,17.09
2022-10-10T14:31:13.265Z,17.04
2022-10-10T14:33:39.847Z,17.15
2022-10-10T14:36:06.780Z,17.03
2022-10-10T14:38:33.626Z,16.89
2022-10-10T14:41:01.223Z,17.02
2022-10-10T14:43:28.022Z,17.18
2022-10-10T14:45:55.134Z,17.23
2022-10-10T14:48:21.613Z,17.16
2022-10-10T14:50:48.810Z,17.10
2022-10-10T14:53:15.907Z,17.14
2022-10-10T14:55:43.667Z,17.05
2022-10-10T14:58:19.405Z,17.02
2022-10-10T15:00:49.640Z,16.95
2022-10-10T15:03:16.207Z,16.81
2022-10-10T15:05:42.755Z,16.69
2022-10-10T15:08:14.928Z,16.70
2022-10-10T15:10:42.871Z,16.66
2022-10-10T15:13:13.808Z,16.55
2022-10-10T15:15:41.032Z,16.53
2022-10-10T15:18:25.722Z,16.40
2022-10-10T15:20:54.654Z,16.32
2022-10-10T15:23:21.630Z,16.16
2022-10-10T15:25:48.037Z,16.06
2022-10-10T15:28:14.587Z,15.97
2022-10-10T15:30:45.206Z,15.98
2022-10-10T15:33:11.650Z,15.90
2022-10-10T15:36:03.855Z,15.85
2022-10-10T15:38:24.819Z,15.87
2022-10-10T15:41:04.187Z,15.86
2022-10-10T15:43:31.398Z,15.79
2022-10-10T15:46:00.671Z,15.75
2022-10-10T15:48:27.662Z,15.71
2022-10-10T15:50:54.042Z,15.78
2022-10-10T15:53:20.615Z,15.90
2022-10-10T15:55:47.958Z,15.88
2022-10-10T15:58:15.367Z,15.87
2022-10-10T16:00:43.627Z,15.87
2022-10-10T16:03:10.081Z,15.82
2022-10-10T16:05:38.443Z,15.80
2022-10-10T16:08:05.447Z,15.87
2022-10-10T16:10:40.453Z,15.85
2022-10-10T16:13:07.749Z,15.79
2022-10-10T16:15:34.473Z,15.74
2022-10-10T16:18:01.255Z,15.69
2022-10-10T16:20:28.532Z,15.73
2022-10-10T16:22:55.272Z,15.77
2022-10-10T16:25:22.941Z,15.71
2022-10-10T16:27:49.920Z,15.65
2022-10-10T16:30:16.629Z,15.61
2022-10-10T16:32:43.120Z,15.66
2022-10-10T16:35:10.974Z,15.58
2022-10-10T16:37:38.478Z,15.44
2022-10-10T16:40:06.048Z,15.40
2022-10-10T16:42:32.494Z,15.33
2022-10-10T16:44:58.887Z,15.39
2022-10-10T16:47:25.287Z,15.43
2022-10-10T16:49:51.730Z,15.42
2022-10-10T16:52:18.595Z,15.35
2022-10-10T16:54:47.764Z,15.43
2022-10-10T16:57:17.939Z,15.37
2022-10-10T16:59:44.355Z,15.34
2022-10-10T17:02:11.967Z,15.21
2022-10-10T17:04:38.376Z,15.15
2022-10-10T17:07:04.812Z,15.07
2022-10-10T17:09:31.272Z,15.01
2022-10-10T17:11:57.711Z,14.95
2022-10-10T17:14:24.158Z,14.90
2022-10-10T17:17:11.094Z,14.87
2022-10-10T17:19:37.123Z,14.79
2022-10-10T17:22:03.626Z,14.76
2022-10-10T17:24:30.078Z,14.71
2022-10-10T17:26:56.559Z,14.69
2022-10-10T17:29:23.658Z,14.66
2022-10-10T17:31:50.425Z,14.61
2022-10-10T17:34:16.876Z,14.57
2022-10-10T17:36:43.325Z,14.54
2022-10-10T17:39:09.788Z,14.49
2022-10-10T17:41:36.590Z,14.45
2022-10-10T17:44:04.478Z,14.44
2022-10-10T17:46:35.432Z,14.39
2022-10-10T17:49:05.165Z,14.35
2022-10-10T17:51:32.190Z,14.33
2022-10-10T17:53:59.862Z,14.31
2022-10-10T17:56:26.687Z,14.25
2022-10-10T17:58:53.203Z,14.13
2022-10-10T18:01:20.230Z,13.97
2022-10-10T18:03:48.504Z,13.90
2022-10-10T18:06:17.995Z,13.81
2022-10-10T18:08:47.126Z,13.71
2022-10-10T18:11:19.231Z,13.65
2022-10-10T18:13:46.396Z,13.56
2022-10-10T18:16:15.476Z,13.52
2022-10-10T18:18:48.221Z,13.52
2022-10-10T18:21:17.872Z,13.48
2022-10-10T18:23:44.394Z,13.41
2022-10-10T18:26:25.470Z,13.38
2022-10-10T18:28:52.630Z,13.27
2022-10-10T18:31:24.377Z,13.26
2022-10-10T18:33:50.892Z,13.24
2022-10-10T18:36:20.109Z,13.20
2022-10-10T18:38:47.042Z,13.21
2022-10-10T18:41:19.720Z,13.16
2022-10-10T18:43:46.927Z,13.15
2022-10-10T18:46:16.063Z,13.08
2022-10-10T18:48:43.989Z,13.08
2022-10-10T18:51:16.148Z,13.05
2022-10-10T18:53:44.915Z,13.04
2022-10-10T18:56:13.342Z,13.00
2022-10-10T18:58:40.766Z,12.96
2022-10-10T19:01:09.992Z,12.94
2022-10-10T19:03:37.757Z,12.90
2022-10-10T19:06:06.802Z,12.91
2022-10-10T19:08:34.374Z,12.91
2022-10-10T19:11:01.577Z,12.91
2022-10-10T19:13:28.400Z,12.89
2022-10-10T19:15:55.315Z,12.89
2022-10-10T19:18:23.000Z,12.88
2022-10-10T19:20:49.703Z,12.86
2022-10-10T19:23:16.229Z,12.84
2022-10-10T19:25:44.408Z,12.81
2022-10-10T19:28:11.021Z,12.80
2022-10-10T19:30:42.348Z,12.80
2022-10-10T19:33:09.876Z,12.78
2022-10-10T19:35:42.170Z,12.74
2022-10-10T19:38:10.091Z,12.74
2022-10-10T19:40:43.717Z,12.67
2022-10-10T19:43:10.152Z,12.57
2022-10-10T19:45:48.491Z,12.57
2022-10-10T19:48:15.775Z,12.50
2022-10-10T19:50:43.852Z,12.41
2022-10-10T19:53:14.568Z,12.32
2022-10-10T19:55:41.574Z,12.34
2022-10-10T19:58:08.027Z,12.27
2022-10-10T20:00:36.557Z,12.29
2022-10-10T20:03:03.072Z,12.20
2022-10-10T20:05:29.453Z,12.18
2022-10-10T20:07:55.906Z,12.21
2022-10-10T20:10:22.364Z,12.19
2022-10-10T20:12:49.217Z,12.15
2022-10-10T20:15:15.825Z,12.11
2022-10-10T20:17:42.304Z,12.12
2022-10-10T20:20:09.096Z,12.04
2022-10-10T20:22:35.596Z,12.05
2022-10-10T20:25:02.089Z,12.02
2022-10-10T20:27:31.176Z,11.96
2022-10-10T20:29:58.217Z,11.89
2022-10-10T20:32:24.904Z,11.83
2022-10-10T20:34:51.392Z,11.74
2022-10-10T20:37:17.790Z,11.63
2022-10-10T20:39:44.414Z,11.64
2022-10-10T20:42:10.853Z,11.63
2022-10-10T20:44:39.344Z,11.61
2022-10-10T20:47:06.789Z,11.47
2022-10-10T20:49:33.267Z,11.48
2022-10-10T20:51:59.711Z,11.44
2022-10-10T20:54:26.169Z,11.30
2022-10-10T20:56:52.641Z,11.14
2022-10-10T20:59:20.794Z,11.13
2022-10-10T21:01:47.299Z,11.20
2022-10-10T21:04:14.188Z,11.14
2022-10-10T21:06:42.693Z,11.01
2022-10-10T21:09:11.058Z,10.92
2022-10-10T21:11:39.111Z,10.95
2022-10-10T21:14:05.856Z,10.96
2022-10-10T21:16:35.401Z,10.91
2022-10-10T21:19:02.425Z,10.94
2022-10-10T21:21:34.748Z,10.87
2022-10-10T21:24:03.661Z,10.84
2022-10-10T21:26:31.156Z,10.85
2022-10-10T21:28:58.324Z,10.76
2022-10-10T21:31:29.239Z,10.80
2022-10-10T21:33:56.648Z,10.80
2022-10-10T21:36:25.656Z,10.70
2022-10-10T21:38:52.984Z,10.69
2022-10-10T21:41:20.338Z,10.66
2022-10-10T21:43:51.378Z,10.68
2022-10-10T21:46:20.069Z,10.58
2022-10-10T21:48:46.457Z,10.53
2022-10-10T21:51:15.547Z,10.41
2022-10-10T21:53:43.262Z,10.29
2022-10-10T21:56:11.379Z,10.29
2022-10-10T21:58:40.808Z,10.24
2022-10-10T22:01:19.189Z,10.12
2022-10-10T22:03:48.035Z,10.08
2022-10-10T22:06:16.928Z,10.08
2022-10-10T22:08:44.067Z,10.02
2022-10-10T22:11:19.697Z,9.88
2022-10-10T22:13:47.087Z,9.97
2022-10-10T22:16:13.981Z,9.91
2022-10-10T22:18:41.019Z,9.88
2022-10-10T22:21:10.977Z,9.82
2022-10-10T22:23:37.461Z,9.68
2022-10-10T22:26:08.395Z,9.66
2022-10-10T22:28:34.952Z,9.60
2022-10-10T22:31:06.048Z,9.60
2022-10-10T22:33:32.564Z,9.63
2022-10-10T22:35:58.982Z,9.54
2022-10-10T22:38:26.180Z,9.43
2022-10-10T22:40:52.975Z,9.33
2022-10-10T22:43:19.446Z,9.21
2022-10-10T22:45:46.029Z,9.27
2022-10-10T22:48:12.454Z,9.13
2022-10-10T22:50:38.970Z,9.20
2022-10-10T22:53:06.154Z,9.07
2022-10-10T22:55:33.582Z,9.03
2022-10-10T22:58:00.090Z,9.04
2022-10-10T23:00:26.627Z,9.06
2022-10-10T23:02:57.055Z,9.10
2022-10-10T23:05:23.898Z,9.00
2022-10-10T23:07:50.389Z,8.88
2022-10-10T23:10:16.888Z,8.87
2022-10-10T23:12:43.401Z,8.82
2022-10-10T23:15:10.227Z,8.76
2022-10-10T23:17:36.940Z,8.68
2022-10-10T23:20:04.136Z,8.70
2022-10-10T23:22:30.563Z,8.62
2022-10-10T23:24:56.971Z,8.62
2022-10-10T23:27:23.447Z,8.72
2022-10-10T23:29:49.853Z,8.65
2022-10-10T23:32:16.263Z,8.52
2022-10-10T23:34:42.695Z,8.37
2022-10-10T23:37:09.151Z,8.40
2022-10-10T23:39:35.716Z,8.40
2022-10-10T23:42:02.172Z,8.43
2022-10-10T23:44:28.838Z,8.48
2022-10-10T23:46:55.303Z,8.38
2022-10-10T23:49:21.712Z,8.23
2022-10-10T23:51:48.139Z,8.21
2022-10-10T23:54:14.581Z,8.14
2022-10-10T23:56:41.169Z,8.16
2022-10-10T23:59:07.776Z,8.17
